header
chart

Reported and forecast weather at local airports

Important: not to be used for flight planning purposes.


EGBB METAR fetched   Tuesday 12th Dec @ 00:30:31
EGBB 120020Z 29004KT CAVOK M03/M04 Q1000

EGCC METAR fetched   Tuesday 12th Dec @ 00:30:27
EGCC 120020Z AUTO 18002KT 9999 NCD M06/M07 Q1000 BECMG 4000 BR

EGGP METAR fetched   Tuesday 12th Dec @ 00:30:28
EGGP 120020Z 31006KT CAVOK 01/M00 Q1000

EGNH METAR fetched   Tuesday 12th Dec @ 00:30:29
EGNH 112050Z 32006KT CAVOK 01/M01 Q0998

EGNM METAR fetched   Tuesday 12th Dec @ 00:30:30
EGNM 120020Z 27007KT CAVOK M01/M03 Q0998

EGOV METAR fetched   Tuesday 12th Dec @ 00:30:32
EGOV 112350Z AUTO 36003KT 9999 NCD 01/M02 Q1001


EGBB TAF fetched   Tuesday 12th Dec @ 00:30:31
TAF AMD EGBB 112059Z 1121/1218 VRB03KT 9999 FEW035 BECMG 1121/1124 6000 TEMPO 1121/1215 3000 BR PROB40 1203/1212 0300 FZFG VV/// PROB30 TEMPO 1212/1218 BKN004 BECMG 1215/1218 9999 NSW

EGCC TAF fetched   Tuesday 12th Dec @ 00:30:28
TAF AMD EGCC 112200Z 1122/1224 VRB04KT 9999 FEW045 BECMG 1122/1201 4000 BR PROB40 1200/1212 0300 FZFG VV/// BECMG 1213/1216 9999 NSW TEMPO 1220/1224 6000 RA BKN008

EGGP TAF fetched   Tuesday 12th Dec @ 00:30:29
TAF EGGP 111659Z 1118/1218 30008KT 9999 FEW045 PROB30 TEMPO 1118/1121 8000 BECMG 1121/1124 6000 PROB30 1200/1212 0300 FZFG VV/// BECMG 1212/1215 21012KT 9999 NSW

EGNM TAF fetched   Tuesday 12th Dec @ 00:30:31
TAF AMD EGNM 111844Z 1118/1218 30006KT 9999 FEW020 PROB30 TEMPO 1118/1201 6000 -SHSN BKN012 PROB30 1205/1210 6000 BECMG 1215/1218 21010KT

EGOV TAF fetched   Tuesday 12th Dec @ 00:30:32
TAF TAF EGOV 190525Z 1906/1918 04008KT CAVOK PROB30 TEMPO 1906/1912 6000 SHRA TEMPO 1912/1915 4000 +SHRA SCT020 BKN030CB PROB30 TEMPO 1913/1915 VRBG20G30KT 2500 TSGR BKN012

Every effort is made to ensure that this information is free from errors but as it is provided by a third party the accuracy of the reports cannot be guaranteed.